sensor_id;sensor_type;location;lat;lon;timestamp;P1;durP1;ratioP1;P2;durP2;ratioP2
14205;SDS011;7186;48.800;9.216;2023-05-17T00:00:08;4.37;;;1.93;;
14205;SDS011;7186;48.800;9.216;2023-05-17T00:02:34;1.90;;;1.57;;
14205;SDS011;7186;48.800;9.216;2023-05-17T00:04:59;2.80;;;1.43;;
14205;SDS011;7186;48.800;9.216;2023-05-17T00:07:25;3.03;;;1.70;;
14205;SDS011;7186;48.800;9.216;2023-05-17T00:09:50;2.77;;;1.77;;
14205;SDS011;7186;48.800;9.216;2023-05-17T00:12:15;5.67;;;2.17;;
14205;SDS011;7186;48.800;9.216;2023-05-17T00:14:40;1.77;;;1.60;;
14205;SDS011;7186;48.800;9.216;2023-05-17T00:17:06;3.97;;;1.77;;
14205;SDS011;7186;48.800;9.216;2023-05-17T00:19:31;3.73;;;1.60;;
14205;SDS011;7186;48.800;9.216;2023-05-17T00:21:56;6.47;;;1.80;;
14205;SDS011;7186;48.800;9.216;2023-05-17T00:24:21;4.57;;;2.10;;
14205;SDS011;7186;48.800;9.216;2023-05-17T00:26:46;4.17;;;2.10;;
14205;SDS011;7186;48.800;9.216;2023-05-17T00:29:12;7.97;;;1.90;;
14205;SDS011;7186;48.800;9.216;2023-05-17T00:31:37;3.20;;;2.00;;
14205;SDS011;7186;48.800;9.216;2023-05-17T00:34:02;3.77;;;2.07;;
14205;SDS011;7186;48.800;9.216;2023-05-17T00:36:27;3.30;;;1.87;;
14205;SDS011;7186;48.800;9.216;2023-05-17T00:38:52;2.43;;;1.93;;
14205;SDS011;7186;48.800;9.216;2023-05-17T00:41:17;3.03;;;2.00;;
14205;SDS011;7186;48.800;9.216;2023-05-17T00:43:43;4.23;;;1.80;;
14205;SDS011;7186;48.800;9.216;2023-05-17T00:46:08;3.60;;;1.70;;
14205;SDS011;7186;48.800;9.216;2023-05-17T00:48:33;5.67;;;2.13;;
14205;SDS011;7186;48.800;9.216;2023-05-17T00:50:59;5.47;;;1.87;;
14205;SDS011;7186;48.800;9.216;2023-05-17T00:53:24;4.57;;;2.17;;
14205;SDS011;7186;48.800;9.216;2023-05-17T00:55:49;5.97;;;2.00;;
14205;SDS011;7186;48.800;9.216;2023-05-17T00:58:15;6.73;;;2.00;;
14205;SDS011;7186;48.800;9.216;2023-05-17T01:00:40;3.67;;;1.50;;
14205;SDS011;7186;48.800;9.216;2023-05-17T01:03:06;3.93;;;1.80;;
14205;SDS011;7186;48.800;9.216;2023-05-17T01:05:31;4.40;;;2.10;;
14205;SDS011;7186;48.800;9.216;2023-05-17T01:07:56;2.10;;;1.47;;
14205;SDS011;7186;48.800;9.216;2023-05-17T01:10:22;4.13;;;2.30;;
14205;SDS011;7186;48.800;9.216;2023-05-17T01:13:09;5.23;;;2.20;;
14205;SDS011;7186;48.800;9.216;2023-05-17T01:15:40;4.47;;;1.80;;
14205;SDS011;7186;48.800;9.216;2023-05-17T01:18:08;3.07;;;2.00;;
14205;SDS011;7186;48.800;9.216;2023-05-17T01:20:36;2.13;;;1.60;;
14205;SDS011;7186;48.800;9.216;2023-05-17T01:23:09;7.83;;;1.73;;
14205;SDS011;7186;48.800;9.216;2023-05-17T01:28:24;3.10;;;1.60;;
14205;SDS011;7186;48.800;9.216;2023-05-17T01:30:50;6.33;;;2.10;;
14205;SDS011;7186;48.800;9.216;2023-05-17T01:33:16;6.87;;;1.97;;
14205;SDS011;7186;48.800;9.216;2023-05-17T01:35:42;3.03;;;1.73;;
14205;SDS011;7186;48.800;9.216;2023-05-17T01:38:07;2.90;;;1.80;;
14205;SDS011;7186;48.800;9.216;2023-05-17T01:40:33;3.60;;;2.00;;
14205;SDS011;7186;48.800;9.216;2023-05-17T01:43:09;2.80;;;1.93;;
14205;SDS011;7186;48.800;9.216;2023-05-17T01:45:39;3.00;;;1.77;;
14205;SDS011;7186;48.800;9.216;2023-05-17T01:48:08;3.03;;;1.80;;
14205;SDS011;7186;48.800;9.216;2023-05-17T01:50:39;5.20;;;1.80;;
14205;SDS011;7186;48.800;9.216;2023-05-17T01:53:06;3.73;;;2.03;;
14205;SDS011;7186;48.800;9.216;2023-05-17T01:55:43;7.17;;;2.20;;
14205;SDS011;7186;48.800;9.216;2023-05-17T01:58:10;2.43;;;1.87;;
14205;SDS011;7186;48.800;9.216;2023-05-17T02:00:37;6.43;;;2.10;;
14205;SDS011;7186;48.800;9.216;2023-05-17T02:03:03;7.27;;;2.37;;
14205;SDS011;7186;48.800;9.216;2023-05-17T02:05:28;5.87;;;2.00;;
14205;SDS011;7186;48.800;9.216;2023-05-17T02:07:53;4.33;;;1.90;;
14205;SDS011;7186;48.800;9.216;2023-05-17T02:10:18;5.47;;;2.10;;
14205;SDS011;7186;48.800;9.216;2023-05-17T02:12:44;3.23;;;2.00;;
14205;SDS011;7186;48.800;9.216;2023-05-17T02:15:09;3.33;;;2.27;;
14205;SDS011;7186;48.800;9.216;2023-05-17T02:17:36;10.30;;;2.53;;
14205;SDS011;7186;48.800;9.216;2023-05-17T02:20:01;6.33;;;2.03;;
14205;SDS011;7186;48.800;9.216;2023-05-17T02:22:26;5.27;;;1.70;;
14205;SDS011;7186;48.800;9.216;2023-05-17T02:24:53;3.80;;;2.00;;
14205;SDS011;7186;48.800;9.216;2023-05-17T02:27:18;5.27;;;2.20;;
14205;SDS011;7186;48.800;9.216;2023-05-17T02:29:43;3.97;;;2.03;;
14205;SDS011;7186;48.800;9.216;2023-05-17T02:32:09;4.63;;;1.77;;
14205;SDS011;7186;48.800;9.216;2023-05-17T02:34:34;5.23;;;2.00;;
14205;SDS011;7186;48.800;9.216;2023-05-17T02:37:00;4.60;;;1.93;;
14205;SDS011;7186;48.800;9.216;2023-05-17T02:39:25;3.53;;;1.90;;
14205;SDS011;7186;48.800;9.216;2023-05-17T02:41:50;1.97;;;1.70;;
14205;SDS011;7186;48.800;9.216;2023-05-17T02:44:15;3.47;;;1.87;;
14205;SDS011;7186;48.800;9.216;2023-05-17T02:46:41;3.90;;;1.77;;
14205;SDS011;7186;48.800;9.216;2023-05-17T02:49:06;4.23;;;1.73;;
14205;SDS011;7186;48.800;9.216;2023-05-17T02:51:31;2.67;;;1.90;;
14205;SDS011;7186;48.800;9.216;2023-05-17T02:53:56;3.30;;;2.13;;
14205;SDS011;7186;48.800;9.216;2023-05-17T02:56:21;4.73;;;2.17;;
14205;SDS011;7186;48.800;9.216;2023-05-17T02:58:46;4.50;;;1.83;;
14205;SDS011;7186;48.800;9.216;2023-05-17T03:01:12;4.13;;;2.17;;
14205;SDS011;7186;48.800;9.216;2023-05-17T03:03:37;6.57;;;2.30;;
14205;SDS011;7186;48.800;9.216;2023-05-17T03:06:02;3.30;;;1.97;;
14205;SDS011;7186;48.800;9.216;2023-05-17T03:08:28;3.83;;;1.70;;
14205;SDS011;7186;48.800;9.216;2023-05-17T03:10:54;2.43;;;1.93;;
14205;SDS011;7186;48.800;9.216;2023-05-17T03:13:19;2.67;;;1.77;;
14205;SDS011;7186;48.800;9.216;2023-05-17T03:15:44;2.73;;;1.93;;
14205;SDS011;7186;48.800;9.216;2023-05-17T03:18:09;3.27;;;2.10;;
14205;SDS011;7186;48.800;9.216;2023-05-17T03:20:35;4.83;;;1.90;;
14205;SDS011;7186;48.800;9.216;2023-05-17T03:23:00;3.63;;;2.00;;
14205;SDS011;7186;48.800;9.216;2023-05-17T03:25:25;7.43;;;1.97;;
14205;SDS011;7186;48.800;9.216;2023-05-17T03:27:50;6.27;;;2.40;;
14205;SDS011;7186;48.800;9.216;2023-05-17T03:30:15;5.03;;;2.20;;
14205;SDS011;7186;48.800;9.216;2023-05-17T03:32:41;2.70;;;1.97;;
14205;SDS011;7186;48.800;9.216;2023-05-17T03:35:06;4.77;;;2.00;;
14205;SDS011;7186;48.800;9.216;2023-05-17T03:37:32;4.87;;;2.30;;
14205;SDS011;7186;48.800;9.216;2023-05-17T03:39:57;3.80;;;2.30;;
14205;SDS011;7186;48.800;9.216;2023-05-17T03:42:22;2.83;;;1.70;;
14205;SDS011;7186;48.800;9.216;2023-05-17T03:44:47;5.00;;;2.00;;
14205;SDS011;7186;48.800;9.216;2023-05-17T03:47:13;3.07;;;2.27;;
14205;SDS011;7186;48.800;9.216;2023-05-17T03:49:38;3.13;;;1.87;;
14205;SDS011;7186;48.800;9.216;2023-05-17T03:52:03;7.63;;;3.50;;
14205;SDS011;7186;48.800;9.216;2023-05-17T03:54:28;4.57;;;3.30;;
14205;SDS011;7186;48.800;9.216;2023-05-17T03:56:53;5.57;;;2.90;;
14205;SDS011;7186;48.800;9.216;2023-05-17T03:59:19;2.93;;;2.67;;
14205;SDS011;7186;48.800;9.216;2023-05-17T04:01:44;4.97;;;3.00;;
14205;SDS011;7186;48.800;9.216;2023-05-17T04:04:11;3.93;;;2.17;;
14205;SDS011;7186;48.800;9.216;2023-05-17T04:06:37;4.53;;;2.50;;
14205;SDS011;7186;48.800;9.216;2023-05-17T04:09:03;5.40;;;2.57;;
14205;SDS011;7186;48.800;9.216;2023-05-17T04:11:28;2.53;;;2.30;;
14205;SDS011;7186;48.800;9.216;2023-05-17T04:13:53;9.40;;;2.70;;
14205;SDS011;7186;48.800;9.216;2023-05-17T04:16:19;3.67;;;2.27;;
14205;SDS011;7186;48.800;9.216;2023-05-17T04:18:44;2.17;;;1.97;;
14205;SDS011;7186;48.800;9.216;2023-05-17T04:21:10;4.10;;;2.20;;
14205;SDS011;7186;48.800;9.216;2023-05-17T04:23:35;5.37;;;2.03;;
14205;SDS011;7186;48.800;9.216;2023-05-17T04:26:00;3.30;;;2.07;;
14205;SDS011;7186;48.800;9.216;2023-05-17T04:28:26;4.07;;;1.97;;
14205;SDS011;7186;48.800;9.216;2023-05-17T04:30:51;2.73;;;1.90;;
14205;SDS011;7186;48.800;9.216;2023-05-17T04:33:17;6.40;;;2.53;;
14205;SDS011;7186;48.800;9.216;2023-05-17T04:35:42;3.17;;;2.20;;
14205;SDS011;7186;48.800;9.216;2023-05-17T04:38:07;9.17;;;2.20;;
14205;SDS011;7186;48.800;9.216;2023-05-17T04:40:33;5.90;;;2.10;;
14205;SDS011;7186;48.800;9.216;2023-05-17T04:42:58;6.53;;;2.10;;
14205;SDS011;7186;48.800;9.216;2023-05-17T04:45:23;5.13;;;1.93;;
14205;SDS011;7186;48.800;9.216;2023-05-17T04:47:49;2.27;;;1.90;;
14205;SDS011;7186;48.800;9.216;2023-05-17T04:50:15;6.30;;;2.30;;
14205;SDS011;7186;48.800;9.216;2023-05-17T04:52:40;4.20;;;2.10;;
14205;SDS011;7186;48.800;9.216;2023-05-17T04:55:05;9.80;;;2.53;;
14205;SDS011;7186;48.800;9.216;2023-05-17T04:57:30;2.63;;;2.00;;
14205;SDS011;7186;48.800;9.216;2023-05-17T04:59:56;5.87;;;2.37;;
14205;SDS011;7186;48.800;9.216;2023-05-17T05:02:21;4.07;;;2.30;;
14205;SDS011;7186;48.800;9.216;2023-05-17T05:04:46;5.80;;;2.13;;
14205;SDS011;7186;48.800;9.216;2023-05-17T05:07:11;5.60;;;2.20;;
14205;SDS011;7186;48.800;9.216;2023-05-17T05:09:36;5.03;;;2.13;;
14205;SDS011;7186;48.800;9.216;2023-05-17T05:12:02;2.33;;;2.10;;
14205;SDS011;7186;48.800;9.216;2023-05-17T05:14:27;4.60;;;2.30;;
14205;SDS011;7186;48.800;9.216;2023-05-17T05:16:52;3.23;;;1.97;;
14205;SDS011;7186;48.800;9.216;2023-05-17T05:19:19;6.93;;;2.10;;
14205;SDS011;7186;48.800;9.216;2023-05-17T05:21:45;6.13;;;2.47;;
14205;SDS011;7186;48.800;9.216;2023-05-17T05:24:10;3.23;;;2.30;;
14205;SDS011;7186;48.800;9.216;2023-05-17T05:26:35;2.20;;;1.80;;
14205;SDS011;7186;48.800;9.216;2023-05-17T05:29:00;6.23;;;2.30;;
14205;SDS011;7186;48.800;9.216;2023-05-17T05:31:26;5.67;;;2.10;;
14205;SDS011;7186;48.800;9.216;2023-05-17T05:33:51;3.67;;;2.20;;
14205;SDS011;7186;48.800;9.216;2023-05-17T05:36:16;7.90;;;2.30;;
14205;SDS011;7186;48.800;9.216;2023-05-17T05:38:41;3.83;;;2.07;;
14205;SDS011;7186;48.800;9.216;2023-05-17T05:41:06;4.33;;;2.13;;
14205;SDS011;7186;48.800;9.216;2023-05-17T05:43:32;3.47;;;2.23;;
14205;SDS011;7186;48.800;9.216;2023-05-17T05:45:59;4.13;;;2.10;;
14205;SDS011;7186;48.800;9.216;2023-05-17T05:48:25;5.10;;;2.00;;
14205;SDS011;7186;48.800;9.216;2023-05-17T05:50:50;4.93;;;2.40;;
14205;SDS011;7186;48.800;9.216;2023-05-17T05:53:15;4.53;;;2.30;;
14205;SDS011;7186;48.800;9.216;2023-05-17T05:55:40;5.83;;;2.13;;
14205;SDS011;7186;48.800;9.216;2023-05-17T05:58:06;6.77;;;2.20;;
14205;SDS011;7186;48.800;9.216;2023-05-17T06:00:31;3.87;;;2.33;;
14205;SDS011;7186;48.800;9.216;2023-05-17T06:02:56;3.97;;;2.60;;
14205;SDS011;7186;48.800;9.216;2023-05-17T06:05:22;3.83;;;2.30;;
14205;SDS011;7186;48.800;9.216;2023-05-17T06:07:47;6.13;;;2.60;;
14205;SDS011;7186;48.800;9.216;2023-05-17T06:10:12;4.37;;;2.23;;
14205;SDS011;7186;48.800;9.216;2023-05-17T06:12:37;11.27;;;2.57;;
14205;SDS011;7186;48.800;9.216;2023-05-17T06:15:03;5.63;;;2.33;;
14205;SDS011;7186;48.800;9.216;2023-05-17T06:17:28;3.93;;;2.30;;
14205;SDS011;7186;48.800;9.216;2023-05-17T06:19:53;5.40;;;2.80;;
14205;SDS011;7186;48.800;9.216;2023-05-17T06:22:18;6.13;;;2.27;;
14205;SDS011;7186;48.800;9.216;2023-05-17T06:24:44;6.53;;;2.60;;
14205;SDS011;7186;48.800;9.216;2023-05-17T06:27:09;4.27;;;2.47;;
14205;SDS011;7186;48.800;9.216;2023-05-17T06:29:34;5.20;;;2.70;;
14205;SDS011;7186;48.800;9.216;2023-05-17T06:32:00;4.53;;;2.57;;
14205;SDS011;7186;48.800;9.216;2023-05-17T06:34:25;3.90;;;2.50;;
14205;SDS011;7186;48.800;9.216;2023-05-17T06:36:50;5.30;;;2.57;;
14205;SDS011;7186;48.800;9.216;2023-05-17T06:39:16;4.33;;;2.50;;
14205;SDS011;7186;48.800;9.216;2023-05-17T06:41:41;6.60;;;2.70;;
14205;SDS011;7186;48.800;9.216;2023-05-17T06:44:06;4.00;;;2.60;;
14205;SDS011;7186;48.800;9.216;2023-05-17T06:46:31;5.40;;;2.50;;
14205;SDS011;7186;48.800;9.216;2023-05-17T06:48:57;6.17;;;2.47;;
14205;SDS011;7186;48.800;9.216;2023-05-17T06:51:22;7.53;;;2.70;;
14205;SDS011;7186;48.800;9.216;2023-05-17T06:53:48;4.10;;;2.50;;
14205;SDS011;7186;48.800;9.216;2023-05-17T06:56:14;7.70;;;3.13;;
14205;SDS011;7186;48.800;9.216;2023-05-17T06:58:41;6.53;;;2.83;;
14205;SDS011;7186;48.800;9.216;2023-05-17T07:01:06;5.50;;;2.50;;
14205;SDS011;7186;48.800;9.216;2023-05-17T07:03:32;4.87;;;2.70;;
14205;SDS011;7186;48.800;9.216;2023-05-17T07:05:57;5.47;;;2.80;;
14205;SDS011;7186;48.800;9.216;2023-05-17T07:08:23;4.50;;;2.60;;
14205;SDS011;7186;48.800;9.216;2023-05-17T07:10:51;5.67;;;2.50;;
14205;SDS011;7186;48.800;9.216;2023-05-17T07:13:16;5.73;;;3.03;;
14205;SDS011;7186;48.800;9.216;2023-05-17T07:15:41;4.87;;;2.47;;
14205;SDS011;7186;48.800;9.216;2023-05-17T07:18:07;7.93;;;3.07;;
14205;SDS011;7186;48.800;9.216;2023-05-17T07:20:32;6.20;;;3.00;;
14205;SDS011;7186;48.800;9.216;2023-05-17T07:22:57;4.50;;;2.87;;
14205;SDS011;7186;48.800;9.216;2023-05-17T07:25:22;4.97;;;2.60;;
14205;SDS011;7186;48.800;9.216;2023-05-17T07:27:48;6.23;;;2.80;;
14205;SDS011;7186;48.800;9.216;2023-05-17T07:30:13;5.40;;;2.80;;
14205;SDS011;7186;48.800;9.216;2023-05-17T07:32:38;6.30;;;2.63;;
14205;SDS011;7186;48.800;9.216;2023-05-17T07:35:03;5.97;;;2.97;;
14205;SDS011;7186;48.800;9.216;2023-05-17T07:37:29;5.30;;;2.70;;
14205;SDS011;7186;48.800;9.216;2023-05-17T07:39:54;7.23;;;3.17;;
14205;SDS011;7186;48.800;9.216;2023-05-17T07:42:19;6.80;;;3.40;;
14205;SDS011;7186;48.800;9.216;2023-05-17T07:44:45;6.53;;;3.10;;
14205;SDS011;7186;48.800;9.216;2023-05-17T07:47:12;8.30;;;3.10;;
14205;SDS011;7186;48.800;9.216;2023-05-17T07:49:37;6.63;;;3.20;;
14205;SDS011;7186;48.800;9.216;2023-05-17T07:52:03;5.27;;;2.77;;
14205;SDS011;7186;48.800;9.216;2023-05-17T07:54:29;6.60;;;3.23;;
14205;SDS011;7186;48.800;9.216;2023-05-17T07:56:54;6.00;;;2.83;;
14205;SDS011;7186;48.800;9.216;2023-05-17T07:59:20;5.87;;;3.30;;
14205;SDS011;7186;48.800;9.216;2023-05-17T08:01:45;6.07;;;3.07;;
14205;SDS011;7186;48.800;9.216;2023-05-17T08:04:10;6.50;;;3.10;;
14205;SDS011;7186;48.800;9.216;2023-05-17T08:06:38;11.37;;;3.57;;
14205;SDS011;7186;48.800;9.216;2023-05-17T08:09:03;5.00;;;3.10;;
14205;SDS011;7186;48.800;9.216;2023-05-17T08:11:28;8.87;;;3.13;;
14205;SDS011;7186;48.800;9.216;2023-05-17T08:13:54;6.83;;;3.00;;
14205;SDS011;7186;48.800;9.216;2023-05-17T08:16:20;6.97;;;3.70;;
14205;SDS011;7186;48.800;9.216;2023-05-17T08:18:45;7.57;;;3.33;;
14205;SDS011;7186;48.800;9.216;2023-05-17T08:21:10;7.73;;;3.57;;
14205;SDS011;7186;48.800;9.216;2023-05-17T08:23:35;6.07;;;3.40;;
14205;SDS011;7186;48.800;9.216;2023-05-17T08:26:00;6.70;;;3.10;;
14205;SDS011;7186;48.800;9.216;2023-05-17T08:28:26;7.00;;;3.67;;
14205;SDS011;7186;48.800;9.216;2023-05-17T08:30:52;10.20;;;3.50;;
14205;SDS011;7186;48.800;9.216;2023-05-17T08:33:17;8.87;;;3.20;;
14205;SDS011;7186;48.800;9.216;2023-05-17T08:35:44;5.87;;;2.67;;
14205;SDS011;7186;48.800;9.216;2023-05-17T08:38:09;7.37;;;3.87;;
14205;SDS011;7186;48.800;9.216;2023-05-17T08:40:35;6.43;;;3.33;;
14205;SDS011;7186;48.800;9.216;2023-05-17T08:43:00;6.47;;;3.43;;
14205;SDS011;7186;48.800;9.216;2023-05-17T08:45:26;5.33;;;3.10;;
14205;SDS011;7186;48.800;9.216;2023-05-17T08:47:51;7.70;;;3.67;;
14205;SDS011;7186;48.800;9.216;2023-05-17T08:50:18;7.83;;;3.57;;
14205;SDS011;7186;48.800;9.216;2023-05-17T08:52:44;8.80;;;3.80;;
14205;SDS011;7186;48.800;9.216;2023-05-17T08:55:10;5.43;;;3.20;;
14205;SDS011;7186;48.800;9.216;2023-05-17T08:57:38;7.20;;;3.73;;
14205;SDS011;7186;48.800;9.216;2023-05-17T09:00:05;6.97;;;3.47;;
14205;SDS011;7186;48.800;9.216;2023-05-17T09:02:33;6.10;;;3.37;;
14205;SDS011;7186;48.800;9.216;2023-05-17T09:04:58;7.27;;;4.17;;
14205;SDS011;7186;48.800;9.216;2023-05-17T09:07:24;8.87;;;3.73;;
14205;SDS011;7186;48.800;9.216;2023-05-17T09:09:49;6.77;;;3.53;;
14205;SDS011;7186;48.800;9.216;2023-05-17T09:12:15;6.67;;;3.20;;
14205;SDS011;7186;48.800;9.216;2023-05-17T09:14:40;6.83;;;3.47;;
14205;SDS011;7186;48.800;9.216;2023-05-17T09:17:05;7.50;;;3.37;;
14205;SDS011;7186;48.800;9.216;2023-05-17T09:19:30;7.37;;;3.93;;
14205;SDS011;7186;48.800;9.216;2023-05-17T09:21:58;9.20;;;3.80;;
14205;SDS011;7186;48.800;9.216;2023-05-17T09:24:27;6.10;;;3.17;;
14205;SDS011;7186;48.800;9.216;2023-05-17T09:26:54;7.60;;;3.50;;
14205;SDS011;7186;48.800;9.216;2023-05-17T09:29:24;8.93;;;3.77;;
14205;SDS011;7186;48.800;9.216;2023-05-17T09:31:49;6.07;;;3.20;;
14205;SDS011;7186;48.800;9.216;2023-05-17T09:34:17;6.77;;;3.27;;
14205;SDS011;7186;48.800;9.216;2023-05-17T09:36:42;5.90;;;3.20;;
14205;SDS011;7186;48.800;9.216;2023-05-17T09:39:08;7.80;;;3.33;;
14205;SDS011;7186;48.800;9.216;2023-05-17T09:41:41;6.10;;;2.90;;
14205;SDS011;7186;48.800;9.216;2023-05-17T09:44:07;6.13;;;3.43;;
14205;SDS011;7186;48.800;9.216;2023-05-17T09:46:33;6.93;;;3.10;;
14205;SDS011;7186;48.800;9.216;2023-05-17T09:49:00;5.43;;;2.93;;
14205;SDS011;7186;48.800;9.216;2023-05-17T09:51:32;5.63;;;3.23;;
14205;SDS011;7186;48.800;9.216;2023-05-17T09:53:58;5.37;;;3.20;;
14205;SDS011;7186;48.800;9.216;2023-05-17T09:56:26;5.27;;;3.47;;
14205;SDS011;7186;48.800;9.216;2023-05-17T09:58:52;6.07;;;3.00;;
14205;SDS011;7186;48.800;9.216;2023-05-17T10:01:17;6.83;;;3.67;;
14205;SDS011;7186;48.800;9.216;2023-05-17T10:03:42;6.73;;;3.40;;
14205;SDS011;7186;48.800;9.216;2023-05-17T10:06:08;6.10;;;3.37;;
14205;SDS011;7186;48.800;9.216;2023-05-17T10:08:36;5.23;;;2.80;;
14205;SDS011;7186;48.800;9.216;2023-05-17T10:11:07;5.90;;;3.00;;
14205;SDS011;7186;48.800;9.216;2023-05-17T10:13:33;8.87;;;3.30;;
14205;SDS011;7186;48.800;9.216;2023-05-17T10:15:59;5.00;;;2.83;;
14205;SDS011;7186;48.800;9.216;2023-05-17T10:18:25;6.00;;;3.50;;
14205;SDS011;7186;48.800;9.216;2023-05-17T10:20:50;7.23;;;3.47;;
14205;SDS011;7186;48.800;9.216;2023-05-17T10:23:16;8.43;;;3.53;;
14205;SDS011;7186;48.800;9.216;2023-05-17T10:25:42;6.80;;;3.70;;
14205;SDS011;7186;48.800;9.216;2023-05-17T10:28:07;6.43;;;3.80;;
14205;SDS011;7186;48.800;9.216;2023-05-17T10:30:34;5.77;;;3.13;;
14205;SDS011;7186;48.800;9.216;2023-05-17T10:32:59;7.77;;;3.00;;
14205;SDS011;7186;48.800;9.216;2023-05-17T10:35:26;8.67;;;3.30;;
14205;SDS011;7186;48.800;9.216;2023-05-17T10:37:52;7.90;;;3.30;;
14205;SDS011;7186;48.800;9.216;2023-05-17T10:40:17;5.00;;;3.03;;
14205;SDS011;7186;48.800;9.216;2023-05-17T10:42:46;7.73;;;3.27;;
14205;SDS011;7186;48.800;9.216;2023-05-17T10:45:14;6.73;;;3.13;;
14205;SDS011;7186;48.800;9.216;2023-05-17T10:47:40;6.70;;;3.20;;
14205;SDS011;7186;48.800;9.216;2023-05-17T10:50:09;7.53;;;3.33;;
14205;SDS011;7186;48.800;9.216;2023-05-17T10:52:37;6.17;;;3.47;;
14205;SDS011;7186;48.800;9.216;2023-05-17T10:55:02;8.07;;;3.17;;
14205;SDS011;7186;48.800;9.216;2023-05-17T10:57:34;5.20;;;3.33;;
14205;SDS011;7186;48.800;9.216;2023-05-17T11:00:03;6.33;;;3.67;;
14205;SDS011;7186;48.800;9.216;2023-05-17T11:02:32;6.00;;;3.80;;
14205;SDS011;7186;48.800;9.216;2023-05-17T11:04:57;9.23;;;3.50;;
14205;SDS011;7186;48.800;9.216;2023-05-17T11:07:30;8.67;;;3.53;;
14205;SDS011;7186;48.800;9.216;2023-05-17T11:10:19;4.63;;;3.17;;
14205;SDS011;7186;48.800;9.216;2023-05-17T11:12:45;5.63;;;3.20;;
14205;SDS011;7186;48.800;9.216;2023-05-17T11:15:15;5.77;;;3.20;;
14205;SDS011;7186;48.800;9.216;2023-05-17T11:20:07;6.17;;;3.40;;
14205;SDS011;7186;48.800;9.216;2023-05-17T11:22:36;7.73;;;3.60;;
14205;SDS011;7186;48.800;9.216;2023-05-17T11:25:04;8.50;;;3.63;;
14205;SDS011;7186;48.800;9.216;2023-05-17T11:27:34;7.67;;;3.70;;
14205;SDS011;7186;48.800;9.216;2023-05-17T11:30:06;5.83;;;3.20;;
14205;SDS011;7186;48.800;9.216;2023-05-17T11:32:31;6.63;;;3.60;;
14205;SDS011;7186;48.800;9.216;2023-05-17T11:35:00;9.27;;;3.63;;
14205;SDS011;7186;48.800;9.216;2023-05-17T11:37:28;7.97;;;3.87;;
14205;SDS011;7186;48.800;9.216;2023-05-17T11:40:00;5.53;;;3.40;;
14205;SDS011;7186;48.800;9.216;2023-05-17T11:42:27;5.63;;;3.30;;
14205;SDS011;7186;48.800;9.216;2023-05-17T11:44:52;5.53;;;3.17;;
14205;SDS011;7186;48.800;9.216;2023-05-17T11:47:20;8.13;;;3.40;;
14205;SDS011;7186;48.800;9.216;2023-05-17T11:49:45;6.83;;;3.20;;
14205;SDS011;7186;48.800;9.216;2023-05-17T11:52:15;6.13;;;3.47;;
14205;SDS011;7186;48.800;9.216;2023-05-17T11:54:40;6.60;;;3.07;;
14205;SDS011;7186;48.800;9.216;2023-05-17T11:57:06;8.83;;;3.83;;
14205;SDS011;7186;48.800;9.216;2023-05-17T11:59:36;6.20;;;3.20;;
14205;SDS011;7186;48.800;9.216;2023-05-17T12:02:03;6.90;;;3.03;;
14205;SDS011;7186;48.800;9.216;2023-05-17T12:04:28;6.00;;;3.20;;
14205;SDS011;7186;48.800;9.216;2023-05-17T12:06:54;5.90;;;3.20;;
14205;SDS011;7186;48.800;9.216;2023-05-17T12:09:19;5.83;;;3.37;;
14205;SDS011;7186;48.800;9.216;2023-05-17T12:11:47;6.63;;;3.30;;
14205;SDS011;7186;48.800;9.216;2023-05-17T12:14:16;13.70;;;3.53;;
14205;SDS011;7186;48.800;9.216;2023-05-17T12:16:42;8.63;;;3.17;;
14205;SDS011;7186;48.800;9.216;2023-05-17T12:19:18;6.47;;;3.43;;
14205;SDS011;7186;48.800;9.216;2023-05-17T12:21:47;7.67;;;3.10;;
14205;SDS011;7186;48.800;9.216;2023-05-17T12:24:12;7.03;;;3.47;;
14205;SDS011;7186;48.800;9.216;2023-05-17T12:26:44;4.47;;;2.83;;
14205;SDS011;7186;48.800;9.216;2023-05-17T12:29:10;5.47;;;3.10;;
14205;SDS011;7186;48.800;9.216;2023-05-17T12:31:39;7.77;;;3.77;;
14205;SDS011;7186;48.800;9.216;2023-05-17T12:34:06;6.27;;;3.07;;
14205;SDS011;7186;48.800;9.216;2023-05-17T12:36:33;4.40;;;2.97;;
14205;SDS011;7186;48.800;9.216;2023-05-17T12:38:59;7.60;;;3.40;;
14205;SDS011;7186;48.800;9.216;2023-05-17T12:41:24;5.50;;;3.70;;
14205;SDS011;7186;48.800;9.216;2023-05-17T12:43:50;5.13;;;3.10;;
14205;SDS011;7186;48.800;9.216;2023-05-17T12:46:16;5.90;;;3.23;;
14205;SDS011;7186;48.800;9.216;2023-05-17T12:48:42;6.37;;;3.13;;
14205;SDS011;7186;48.800;9.216;2023-05-17T12:53:59;7.33;;;3.83;;
14205;SDS011;7186;48.800;9.216;2023-05-17T12:56:28;5.23;;;3.03;;
14205;SDS011;7186;48.800;9.216;2023-05-17T13:01:35;8.43;;;3.20;;
14205;SDS011;7186;48.800;9.216;2023-05-17T13:04:01;7.60;;;3.10;;
14205;SDS011;7186;48.800;9.216;2023-05-17T13:06:27;6.47;;;2.97;;
14205;SDS011;7186;48.800;9.216;2023-05-17T13:08:58;6.13;;;3.30;;
14205;SDS011;7186;48.800;9.216;2023-05-17T13:11:24;7.17;;;3.27;;
14205;SDS011;7186;48.800;9.216;2023-05-17T13:13:50;7.90;;;3.63;;
14205;SDS011;7186;48.800;9.216;2023-05-17T13:16:15;5.87;;;3.30;;
14205;SDS011;7186;48.800;9.216;2023-05-17T13:18:47;7.20;;;3.10;;
14205;SDS011;7186;48.800;9.216;2023-05-17T13:21:12;7.07;;;3.33;;
14205;SDS011;7186;48.800;9.216;2023-05-17T13:23:45;7.30;;;2.93;;
14205;SDS011;7186;48.800;9.216;2023-05-17T13:26:10;10.17;;;3.53;;
14205;SDS011;7186;48.800;9.216;2023-05-17T13:28:36;3.47;;;2.83;;
14205;SDS011;7186;48.800;9.216;2023-05-17T13:31:02;7.53;;;3.37;;
14205;SDS011;7186;48.800;9.216;2023-05-17T13:33:27;6.77;;;3.17;;
14205;SDS011;7186;48.800;9.216;2023-05-17T13:35:52;6.67;;;3.43;;
14205;SDS011;7186;48.800;9.216;2023-05-17T13:38:17;5.50;;;3.40;;
14205;SDS011;7186;48.800;9.216;2023-05-17T13:40:43;5.67;;;3.90;;
14205;SDS011;7186;48.800;9.216;2023-05-17T13:43:08;12.77;;;4.97;;
14205;SDS011;7186;48.800;9.216;2023-05-17T13:45:33;6.80;;;3.30;;
14205;SDS011;7186;48.800;9.216;2023-05-17T13:47:59;7.53;;;3.23;;
14205;SDS011;7186;48.800;9.216;2023-05-17T13:50:24;4.77;;;3.20;;
14205;SDS011;7186;48.800;9.216;2023-05-17T13:52:50;6.30;;;3.20;;
14205;SDS011;7186;48.800;9.216;2023-05-17T13:55:16;5.83;;;3.23;;
14205;SDS011;7186;48.800;9.216;2023-05-17T13:57:41;6.77;;;3.10;;
14205;SDS011;7186;48.800;9.216;2023-05-17T14:00:07;7.90;;;3.10;;
14205;SDS011;7186;48.800;9.216;2023-05-17T14:02:33;6.80;;;3.40;;
14205;SDS011;7186;48.800;9.216;2023-05-17T14:04:58;6.70;;;3.30;;
14205;SDS011;7186;48.800;9.216;2023-05-17T14:07:23;9.07;;;3.40;;
14205;SDS011;7186;48.800;9.216;2023-05-17T14:09:48;6.70;;;3.30;;
14205;SDS011;7186;48.800;9.216;2023-05-17T14:12:13;7.67;;;3.30;;
14205;SDS011;7186;48.800;9.216;2023-05-17T14:14:39;7.23;;;3.57;;
14205;SDS011;7186;48.800;9.216;2023-05-17T14:17:04;14.43;;;3.03;;
14205;SDS011;7186;48.800;9.216;2023-05-17T14:19:30;6.53;;;3.40;;
14205;SDS011;7186;48.800;9.216;2023-05-17T14:21:55;5.17;;;2.80;;
14205;SDS011;7186;48.800;9.216;2023-05-17T14:24:20;7.13;;;3.33;;
14205;SDS011;7186;48.800;9.216;2023-05-17T14:26:45;7.37;;;3.63;;
14205;SDS011;7186;48.800;9.216;2023-05-17T14:29:11;6.67;;;3.47;;
14205;SDS011;7186;48.800;9.216;2023-05-17T14:31:36;7.03;;;3.37;;
14205;SDS011;7186;48.800;9.216;2023-05-17T14:34:02;7.63;;;3.40;;
14205;SDS011;7186;48.800;9.216;2023-05-17T14:36:27;4.47;;;3.20;;
14205;SDS011;7186;48.800;9.216;2023-05-17T14:38:53;4.77;;;3.53;;
14205;SDS011;7186;48.800;9.216;2023-05-17T14:41:18;5.13;;;3.37;;
14205;SDS011;7186;48.800;9.216;2023-05-17T14:43:43;6.10;;;2.83;;
14205;SDS011;7186;48.800;9.216;2023-05-17T14:46:09;5.63;;;3.00;;
14205;SDS011;7186;48.800;9.216;2023-05-17T14:48:34;4.90;;;3.10;;
14205;SDS011;7186;48.800;9.216;2023-05-17T14:50:59;5.07;;;3.17;;
14205;SDS011;7186;48.800;9.216;2023-05-17T14:53:27;5.27;;;3.13;;
14205;SDS011;7186;48.800;9.216;2023-05-17T14:55:53;7.50;;;3.50;;
14205;SDS011;7186;48.800;9.216;2023-05-17T14:58:18;5.73;;;3.50;;
14205;SDS011;7186;48.800;9.216;2023-05-17T15:00:45;6.93;;;3.47;;
14205;SDS011;7186;48.800;9.216;2023-05-17T15:03:11;7.60;;;3.63;;